• Join FlightAware (Why Join?)
  • Login
  • US Flag 
10:10PM EST


 

Airport Tracker/Info


-or-


 

Live Flight TrackerFlight Track Log ✈ KAP66 ✈ 07-May-2013 ✈ KEWB - KACK

Flight Track Log - Related Links

Times and Time Zones

All times are in EDT time to prevent confusion due to time zone crossing. See the KAP66 flight status page for this flight to view local times or setup timezone preferences in your user account.

Time Position Orientation Groundspeed Altitude Reporting Facility
EDT Latitude Longitude Course Direction KTS MPH feet Rate Location/Type
07:05AM 41.6631 -70.9422 119° Southeast 115 132 500  Level Boston Center
07:06AM 41.6481 -70.9067 119° Southeast 114 131 1,100 660 Climbing Boston Center
07:08AM 41.6271 -70.8674 126° Southeast  Level FlightAware Approximate
07:15AM 41.5090 -70.6153 121° Southeast  Level FlightAware Approximate
07:16AM 41.4928 -70.5788 121° Southeast  Level FlightAware Approximate
07:17AM 41.4766 -70.5423 121° Southeast  Level FlightAware Approximate
07:18AM 41.4603 -70.5058 121° Southeast  Level FlightAware Approximate
07:19AM 41.4441 -70.4693 121° Southeast  Level FlightAware Approximate
07:20AM 41.4278 -70.4328 121° Southeast  Level FlightAware Approximate
07:21AM 41.4115 -70.3964 121° Southeast  Level FlightAware Approximate
07:22AM 41.3952 -70.3600 121° Southeast  Level FlightAware Approximate
07:23AM 41.3799 -70.3229 114° Southeast  Level FlightAware Approximate
07:24AM 41.3670 -70.2842 114° Southeast  Level FlightAware Approximate
07:25AM 41.3468 -70.2515 130° Southeast  Level FlightAware Approximate
07:26AM 41.3265 -70.2189 130° Southeast  Level FlightAware Approximate
07:27AM 41.3061 -70.1864 130° Southeast  Level FlightAware Approximate
07:28AM 41.2857 -70.1538 130° Southeast  Level FlightAware Approximate
07:29AM 41.2720 -70.1159 114° Southeast  Level FlightAware Approximate
07:30AM 41.2591 -70.0772 114° Southeast  Level FlightAware Approximate
07:31AM 41.2531 -70.0603 114° Southeast  Level Estimated
07:32AM 41.2531 -70.0603 114° Southeast  Level Estimated
07:33AM 41.2531 -70.0603 114° Southeast  Level Estimated
07:34AM 41.2531 -70.0603 114° Southeast  Level Estimated
07:35AM 41.2531 -70.0603 114° Southeast  Level Estimated
07:36AM 41.2531 -70.0603 114° Southeast  Level Estimated
07:37AM 41.2531 -70.0603 114° Southeast  Level Estimated
07:38AM 41.2531 -70.0603 114° Southeast  Level Estimated
07:39AM 41.2531 -70.0603 114° Southeast  Level Estimated
07:40AM 41.2531 -70.0603 114° Southeast  Level Estimated
07:41AM 41.2531 -70.0603 114° Southeast  Level Estimated
07:42AM 41.2531 -70.0603 114° Southeast  Level Estimated
07:43AM 41.2531 -70.0603 114° Southeast  Level Estimated
07:44AM 41.2531 -70.0603 114° Southeast  Level Estimated
07:45AM 41.2531 -70.0603 114° Southeast  Level Estimated
07:46AM 41.2531 -70.0603 114° Southeast  Level Estimated